sensor_id;sensor_type;location;lat;lon;timestamp;P1;durP1;ratioP1;P2;durP2;ratioP2
151;SDS011;68;48.792;9.164;2023-04-03T00:01:35;10.85;;;5.80;;
151;SDS011;68;48.792;9.164;2023-04-03T00:04:03;8.10;;;5.97;;
151;SDS011;68;48.792;9.164;2023-04-03T00:06:30;6.10;;;5.30;;
151;SDS011;68;48.792;9.164;2023-04-03T00:08:58;10.00;;;6.10;;
151;SDS011;68;48.792;9.164;2023-04-03T00:11:25;7.55;;;5.82;;
151;SDS011;68;48.792;9.164;2023-04-03T00:13:52;8.55;;;6.13;;
151;SDS011;68;48.792;9.164;2023-04-03T00:16:18;8.65;;;6.05;;
151;SDS011;68;48.792;9.164;2023-04-03T00:18:45;6.75;;;5.70;;
151;SDS011;68;48.792;9.164;2023-04-03T00:21:12;6.90;;;5.70;;
151;SDS011;68;48.792;9.164;2023-04-03T00:23:40;7.43;;;5.90;;
151;SDS011;68;48.792;9.164;2023-04-03T00:26:08;6.80;;;6.15;;
151;SDS011;68;48.792;9.164;2023-04-03T00:28:35;6.85;;;5.70;;
151;SDS011;68;48.792;9.164;2023-04-03T00:31:02;8.95;;;5.97;;
151;SDS011;68;48.792;9.164;2023-04-03T00:33:29;11.18;;;6.47;;
151;SDS011;68;48.792;9.164;2023-04-03T00:35:56;7.78;;;5.97;;
151;SDS011;68;48.792;9.164;2023-04-03T00:38:22;8.15;;;6.07;;
151;SDS011;68;48.792;9.164;2023-04-03T00:40:49;8.82;;;5.70;;
151;SDS011;68;48.792;9.164;2023-04-03T00:43:18;8.75;;;6.03;;
151;SDS011;68;48.792;9.164;2023-04-03T00:45:47;10.13;;;6.25;;
151;SDS011;68;48.792;9.164;2023-04-03T00:48:15;7.30;;;5.93;;
151;SDS011;68;48.792;9.164;2023-04-03T00:50:45;7.80;;;5.90;;
151;SDS011;68;48.792;9.164;2023-04-03T00:53:14;6.97;;;5.68;;
151;SDS011;68;48.792;9.164;2023-04-03T00:55:49;7.75;;;5.90;;
151;SDS011;68;48.792;9.164;2023-04-03T00:58:18;6.72;;;6.00;;
151;SDS011;68;48.792;9.164;2023-04-03T01:00:48;8.40;;;6.25;;
151;SDS011;68;48.792;9.164;2023-04-03T01:03:22;7.15;;;5.90;;
151;SDS011;68;48.792;9.164;2023-04-03T01:05:49;7.45;;;5.57;;
151;SDS011;68;48.792;9.164;2023-04-03T01:08:16;8.93;;;5.78;;
151;SDS011;68;48.792;9.164;2023-04-03T01:10:43;6.03;;;5.72;;
151;SDS011;68;48.792;9.164;2023-04-03T01:13:22;7.88;;;6.00;;
151;SDS011;68;48.792;9.164;2023-04-03T01:15:51;7.78;;;6.10;;
151;SDS011;68;48.792;9.164;2023-04-03T01:18:18;9.20;;;5.80;;
151;SDS011;68;48.792;9.164;2023-04-03T01:21:02;10.45;;;5.70;;
151;SDS011;68;48.792;9.164;2023-04-03T01:26:57;9.23;;;6.22;;
151;SDS011;68;48.792;9.164;2023-04-03T01:29:26;6.55;;;5.97;;
151;SDS011;68;48.792;9.164;2023-04-03T01:31:54;9.95;;;6.05;;
151;SDS011;68;48.792;9.164;2023-04-03T01:34:22;8.85;;;6.40;;
151;SDS011;68;48.792;9.164;2023-04-03T01:36:50;7.97;;;6.43;;
151;SDS011;68;48.792;9.164;2023-04-03T01:39:17;10.52;;;6.68;;
151;SDS011;68;48.792;9.164;2023-04-03T01:41:44;6.78;;;5.65;;
151;SDS011;68;48.792;9.164;2023-04-03T01:44:11;9.15;;;6.13;;
151;SDS011;68;48.792;9.164;2023-04-03T01:46:39;7.45;;;6.43;;
151;SDS011;68;48.792;9.164;2023-04-03T01:49:08;8.60;;;6.28;;
151;SDS011;68;48.792;9.164;2023-04-03T01:51:35;7.57;;;6.30;;
151;SDS011;68;48.792;9.164;2023-04-03T01:54:02;9.32;;;6.60;;
151;SDS011;68;48.792;9.164;2023-04-03T01:56:29;6.82;;;6.20;;
151;SDS011;68;48.792;9.164;2023-04-03T01:58:56;7.22;;;6.25;;
151;SDS011;68;48.792;9.164;2023-04-03T02:01:22;8.90;;;6.90;;
151;SDS011;68;48.792;9.164;2023-04-03T02:03:50;7.28;;;6.10;;
151;SDS011;68;48.792;9.164;2023-04-03T02:06:18;7.50;;;6.13;;
151;SDS011;68;48.792;9.164;2023-04-03T02:08:45;9.70;;;6.57;;
151;SDS011;68;48.792;9.164;2023-04-03T02:11:12;7.80;;;6.43;;
151;SDS011;68;48.792;9.164;2023-04-03T02:13:39;14.15;;;6.30;;
151;SDS011;68;48.792;9.164;2023-04-03T02:16:06;9.30;;;6.82;;
151;SDS011;68;48.792;9.164;2023-04-03T02:18:34;8.35;;;6.50;;
151;SDS011;68;48.792;9.164;2023-04-03T02:21:01;10.63;;;6.53;;
151;SDS011;68;48.792;9.164;2023-04-03T02:23:30;10.73;;;6.35;;
151;SDS011;68;48.792;9.164;2023-04-03T02:26:02;9.20;;;6.65;;
151;SDS011;68;48.792;9.164;2023-04-03T02:28:30;8.52;;;6.60;;
151;SDS011;68;48.792;9.164;2023-04-03T02:30:57;8.70;;;6.68;;
151;SDS011;68;48.792;9.164;2023-04-03T02:33:24;7.20;;;6.15;;
151;SDS011;68;48.792;9.164;2023-04-03T02:35:52;6.93;;;6.20;;
151;SDS011;68;48.792;9.164;2023-04-03T02:38:19;8.90;;;6.50;;
151;SDS011;68;48.792;9.164;2023-04-03T02:40:47;9.65;;;5.90;;
151;SDS011;68;48.792;9.164;2023-04-03T02:43:14;10.00;;;6.70;;
151;SDS011;68;48.792;9.164;2023-04-03T02:45:41;7.20;;;6.20;;
151;SDS011;68;48.792;9.164;2023-04-03T02:48:08;9.75;;;6.55;;
151;SDS011;68;48.792;9.164;2023-04-03T02:50:34;8.45;;;6.53;;
151;SDS011;68;48.792;9.164;2023-04-03T02:53:01;9.60;;;6.30;;
151;SDS011;68;48.792;9.164;2023-04-03T02:55:28;7.60;;;6.32;;
151;SDS011;68;48.792;9.164;2023-04-03T02:57:56;6.30;;;5.82;;
151;SDS011;68;48.792;9.164;2023-04-03T03:00:23;8.38;;;6.25;;
151;SDS011;68;48.792;9.164;2023-04-03T03:02:49;6.72;;;5.35;;
151;SDS011;68;48.792;9.164;2023-04-03T03:05:16;10.52;;;6.05;;
151;SDS011;68;48.792;9.164;2023-04-03T03:07:43;9.75;;;6.10;;
151;SDS011;68;48.792;9.164;2023-04-03T03:10:10;9.60;;;6.13;;
151;SDS011;68;48.792;9.164;2023-04-03T03:12:36;8.40;;;6.03;;
151;SDS011;68;48.792;9.164;2023-04-03T03:15:05;6.70;;;5.80;;
151;SDS011;68;48.792;9.164;2023-04-03T03:17:33;8.73;;;6.13;;
151;SDS011;68;48.792;9.164;2023-04-03T03:20:01;7.68;;;5.85;;
151;SDS011;68;48.792;9.164;2023-04-03T03:22:28;8.32;;;6.05;;
151;SDS011;68;48.792;9.164;2023-04-03T03:24:55;8.05;;;5.90;;
151;SDS011;68;48.792;9.164;2023-04-03T03:27:21;12.30;;;6.28;;
151;SDS011;68;48.792;9.164;2023-04-03T03:29:49;7.00;;;6.28;;
151;SDS011;68;48.792;9.164;2023-04-03T03:32:17;7.88;;;5.70;;
151;SDS011;68;48.792;9.164;2023-04-03T03:34:44;9.18;;;6.38;;
151;SDS011;68;48.792;9.164;2023-04-03T03:37:10;7.95;;;6.07;;
151;SDS011;68;48.792;9.164;2023-04-03T03:39:37;8.70;;;5.65;;
151;SDS011;68;48.792;9.164;2023-04-03T03:42:04;9.73;;;6.15;;
151;SDS011;68;48.792;9.164;2023-04-03T03:44:31;8.93;;;6.25;;
151;SDS011;68;48.792;9.164;2023-04-03T03:46:57;7.57;;;6.20;;
151;SDS011;68;48.792;9.164;2023-04-03T03:49:26;7.38;;;5.65;;
151;SDS011;68;48.792;9.164;2023-04-03T03:51:52;6.53;;;5.38;;
151;SDS011;68;48.792;9.164;2023-04-03T03:54:19;6.85;;;5.82;;
151;SDS011;68;48.792;9.164;2023-04-03T03:56:46;6.78;;;5.60;;
151;SDS011;68;48.792;9.164;2023-04-03T03:59:13;7.45;;;5.95;;
151;SDS011;68;48.792;9.164;2023-04-03T04:01:40;8.18;;;5.63;;
151;SDS011;68;48.792;9.164;2023-04-03T04:04:07;6.38;;;5.47;;
151;SDS011;68;48.792;9.164;2023-04-03T04:06:35;9.48;;;6.13;;
151;SDS011;68;48.792;9.164;2023-04-03T04:09:01;6.18;;;5.30;;
151;SDS011;68;48.792;9.164;2023-04-03T04:11:28;8.15;;;5.90;;
151;SDS011;68;48.792;9.164;2023-04-03T04:13:55;8.02;;;5.78;;
151;SDS011;68;48.792;9.164;2023-04-03T04:16:22;9.60;;;5.70;;
151;SDS011;68;48.792;9.164;2023-04-03T04:18:48;6.05;;;5.50;;
151;SDS011;68;48.792;9.164;2023-04-03T04:21:15;5.97;;;5.57;;
151;SDS011;68;48.792;9.164;2023-04-03T04:23:43;7.45;;;5.50;;
151;SDS011;68;48.792;9.164;2023-04-03T04:26:10;7.47;;;6.13;;
151;SDS011;68;48.792;9.164;2023-04-03T04:28:37;7.30;;;6.10;;
151;SDS011;68;48.792;9.164;2023-04-03T04:31:03;5.90;;;5.15;;
151;SDS011;68;48.792;9.164;2023-04-03T04:33:30;7.03;;;5.70;;
151;SDS011;68;48.792;9.164;2023-04-03T04:35:57;6.78;;;5.60;;
151;SDS011;68;48.792;9.164;2023-04-03T04:38:24;6.75;;;5.85;;
151;SDS011;68;48.792;9.164;2023-04-03T04:40:52;6.35;;;5.57;;
151;SDS011;68;48.792;9.164;2023-04-03T04:43:18;7.95;;;5.63;;
151;SDS011;68;48.792;9.164;2023-04-03T04:45:45;5.20;;;4.70;;
151;SDS011;68;48.792;9.164;2023-04-03T04:48:12;6.85;;;5.50;;
151;SDS011;68;48.792;9.164;2023-04-03T04:50:39;7.07;;;4.57;;
151;SDS011;68;48.792;9.164;2023-04-03T04:53:05;6.07;;;5.30;;
151;SDS011;68;48.792;9.164;2023-04-03T04:55:33;6.10;;;5.03;;
151;SDS011;68;48.792;9.164;2023-04-03T04:58:01;6.75;;;5.35;;
151;SDS011;68;48.792;9.164;2023-04-03T05:00:28;10.07;;;5.30;;
151;SDS011;68;48.792;9.164;2023-04-03T05:02:55;7.43;;;5.88;;
151;SDS011;68;48.792;9.164;2023-04-03T05:05:21;5.55;;;4.88;;
151;SDS011;68;48.792;9.164;2023-04-03T05:07:48;5.90;;;5.40;;
151;SDS011;68;48.792;9.164;2023-04-03T05:10:15;7.13;;;5.53;;
151;SDS011;68;48.792;9.164;2023-04-03T05:12:42;6.72;;;4.85;;
151;SDS011;68;48.792;9.164;2023-04-03T05:15:10;6.80;;;5.25;;
151;SDS011;68;48.792;9.164;2023-04-03T05:17:37;7.35;;;5.60;;
151;SDS011;68;48.792;9.164;2023-04-03T05:20:04;7.60;;;5.47;;
151;SDS011;68;48.792;9.164;2023-04-03T05:22:31;7.32;;;5.53;;
151;SDS011;68;48.792;9.164;2023-04-03T05:24:58;8.38;;;5.15;;
151;SDS011;68;48.792;9.164;2023-04-03T05:27:25;6.75;;;5.00;;
151;SDS011;68;48.792;9.164;2023-04-03T05:29:53;6.57;;;5.40;;
151;SDS011;68;48.792;9.164;2023-04-03T05:32:22;8.82;;;5.25;;
151;SDS011;68;48.792;9.164;2023-04-03T05:34:50;7.18;;;5.50;;
151;SDS011;68;48.792;9.164;2023-04-03T05:37:17;7.95;;;5.90;;
151;SDS011;68;48.792;9.164;2023-04-03T05:39:44;6.68;;;5.13;;
151;SDS011;68;48.792;9.164;2023-04-03T05:42:11;7.65;;;5.32;;
151;SDS011;68;48.792;9.164;2023-04-03T05:44:38;6.72;;;5.60;;
151;SDS011;68;48.792;9.164;2023-04-03T05:47:05;5.95;;;5.15;;
151;SDS011;68;48.792;9.164;2023-04-03T05:49:34;7.45;;;5.50;;
151;SDS011;68;48.792;9.164;2023-04-03T05:52:05;7.07;;;5.35;;
151;SDS011;68;48.792;9.164;2023-04-03T05:54:32;11.27;;;5.22;;
151;SDS011;68;48.792;9.164;2023-04-03T05:56:59;6.35;;;5.45;;
151;SDS011;68;48.792;9.164;2023-04-03T05:59:25;10.80;;;5.63;;
151;SDS011;68;48.792;9.164;2023-04-03T06:01:52;8.75;;;5.88;;
151;SDS011;68;48.792;9.164;2023-04-03T06:04:19;8.45;;;5.60;;
151;SDS011;68;48.792;9.164;2023-04-03T06:06:48;7.25;;;5.60;;
151;SDS011;68;48.792;9.164;2023-04-03T06:09:17;6.18;;;5.30;;
151;SDS011;68;48.792;9.164;2023-04-03T06:11:45;9.57;;;5.10;;
151;SDS011;68;48.792;9.164;2023-04-03T06:14:12;10.15;;;5.50;;
151;SDS011;68;48.792;9.164;2023-04-03T06:16:39;6.07;;;5.28;;
151;SDS011;68;48.792;9.164;2023-04-03T06:19:06;15.85;;;5.45;;
151;SDS011;68;48.792;9.164;2023-04-03T06:21:34;6.32;;;5.30;;
151;SDS011;68;48.792;9.164;2023-04-03T06:24:02;6.80;;;4.95;;
151;SDS011;68;48.792;9.164;2023-04-03T06:26:29;7.15;;;5.63;;
151;SDS011;68;48.792;9.164;2023-04-03T06:28:57;20.27;;;5.40;;
151;SDS011;68;48.792;9.164;2023-04-03T06:31:24;6.20;;;5.60;;
151;SDS011;68;48.792;9.164;2023-04-03T06:33:50;6.20;;;5.18;;
151;SDS011;68;48.792;9.164;2023-04-03T06:36:17;9.18;;;5.80;;
151;SDS011;68;48.792;9.164;2023-04-03T06:38:46;10.75;;;5.50;;
151;SDS011;68;48.792;9.164;2023-04-03T06:41:14;7.05;;;5.03;;
151;SDS011;68;48.792;9.164;2023-04-03T06:43:41;7.72;;;5.30;;
151;SDS011;68;48.792;9.164;2023-04-03T06:46:10;6.07;;;5.05;;
151;SDS011;68;48.792;9.164;2023-04-03T06:48:39;6.88;;;5.15;;
151;SDS011;68;48.792;9.164;2023-04-03T06:51:06;8.07;;;5.70;;
151;SDS011;68;48.792;9.164;2023-04-03T06:53:34;9.25;;;5.85;;
151;SDS011;68;48.792;9.164;2023-04-03T06:56:01;9.55;;;5.45;;
151;SDS011;68;48.792;9.164;2023-04-03T06:58:29;10.35;;;5.95;;
151;SDS011;68;48.792;9.164;2023-04-03T07:00:56;8.85;;;5.55;;
151;SDS011;68;48.792;9.164;2023-04-03T07:03:23;10.98;;;5.53;;
151;SDS011;68;48.792;9.164;2023-04-03T07:05:49;8.48;;;5.50;;
151;SDS011;68;48.792;9.164;2023-04-03T07:08:16;7.10;;;5.53;;
151;SDS011;68;48.792;9.164;2023-04-03T07:10:43;8.15;;;6.00;;
151;SDS011;68;48.792;9.164;2023-04-03T07:13:09;6.10;;;5.50;;
151;SDS011;68;48.792;9.164;2023-04-03T07:15:38;9.00;;;5.28;;
151;SDS011;68;48.792;9.164;2023-04-03T07:18:04;6.00;;;5.10;;
151;SDS011;68;48.792;9.164;2023-04-03T07:20:31;11.30;;;5.65;;
151;SDS011;68;48.792;9.164;2023-04-03T07:22:58;6.85;;;5.32;;
151;SDS011;68;48.792;9.164;2023-04-03T07:25:26;10.35;;;5.70;;
151;SDS011;68;48.792;9.164;2023-04-03T07:27:53;8.25;;;5.88;;
151;SDS011;68;48.792;9.164;2023-04-03T07:30:20;7.10;;;5.70;;
151;SDS011;68;48.792;9.164;2023-04-03T07:32:48;8.50;;;6.40;;
151;SDS011;68;48.792;9.164;2023-04-03T07:35:16;7.57;;;5.40;;
151;SDS011;68;48.792;9.164;2023-04-03T07:37:43;8.43;;;5.65;;
151;SDS011;68;48.792;9.164;2023-04-03T07:40:10;9.32;;;6.00;;
151;SDS011;68;48.792;9.164;2023-04-03T07:42:37;8.65;;;5.57;;
151;SDS011;68;48.792;9.164;2023-04-03T07:45:04;7.60;;;5.60;;
151;SDS011;68;48.792;9.164;2023-04-03T07:47:31;6.15;;;5.50;;
151;SDS011;68;48.792;9.164;2023-04-03T07:49:59;9.98;;;5.63;;
151;SDS011;68;48.792;9.164;2023-04-03T07:52:26;14.05;;;5.90;;
151;SDS011;68;48.792;9.164;2023-04-03T07:54:53;9.05;;;6.20;;
151;SDS011;68;48.792;9.164;2023-04-03T07:57:20;9.10;;;6.80;;
151;SDS011;68;48.792;9.164;2023-04-03T07:59:46;10.23;;;6.18;;
151;SDS011;68;48.792;9.164;2023-04-03T08:02:13;5.70;;;5.30;;
151;SDS011;68;48.792;9.164;2023-04-03T08:04:40;11.40;;;6.00;;
151;SDS011;68;48.792;9.164;2023-04-03T08:07:08;7.68;;;5.50;;
151;SDS011;68;48.792;9.164;2023-04-03T08:09:35;7.43;;;5.95;;
151;SDS011;68;48.792;9.164;2023-04-03T08:12:02;10.02;;;5.63;;
151;SDS011;68;48.792;9.164;2023-04-03T08:14:30;6.80;;;5.43;;
151;SDS011;68;48.792;9.164;2023-04-03T08:16:59;8.35;;;5.80;;
151;SDS011;68;48.792;9.164;2023-04-03T08:19:27;8.73;;;6.22;;
151;SDS011;68;48.792;9.164;2023-04-03T08:21:54;6.25;;;5.55;;
151;SDS011;68;48.792;9.164;2023-04-03T08:24:23;8.00;;;5.88;;
151;SDS011;68;48.792;9.164;2023-04-03T08:26:50;6.95;;;5.75;;
151;SDS011;68;48.792;9.164;2023-04-03T08:29:17;8.45;;;5.57;;
151;SDS011;68;48.792;9.164;2023-04-03T08:31:43;9.75;;;6.25;;
151;SDS011;68;48.792;9.164;2023-04-03T08:34:11;6.97;;;5.95;;
151;SDS011;68;48.792;9.164;2023-04-03T08:36:38;9.90;;;5.40;;
151;SDS011;68;48.792;9.164;2023-04-03T08:39:05;6.95;;;5.50;;
151;SDS011;68;48.792;9.164;2023-04-03T08:41:33;9.38;;;5.35;;
151;SDS011;68;48.792;9.164;2023-04-03T08:44:03;6.30;;;5.53;;
151;SDS011;68;48.792;9.164;2023-04-03T08:46:44;9.32;;;5.65;;
151;SDS011;68;48.792;9.164;2023-04-03T08:49:29;8.73;;;5.65;;
151;SDS011;68;48.792;9.164;2023-04-03T08:51:59;8.80;;;5.60;;
151;SDS011;68;48.792;9.164;2023-04-03T08:54:31;7.68;;;6.05;;
151;SDS011;68;48.792;9.164;2023-04-03T08:57:04;6.93;;;5.20;;
151;SDS011;68;48.792;9.164;2023-04-03T08:59:33;13.27;;;6.22;;
151;SDS011;68;48.792;9.164;2023-04-03T09:02:04;8.23;;;5.88;;
151;SDS011;68;48.792;9.164;2023-04-03T09:04:43;7.68;;;5.50;;
151;SDS011;68;48.792;9.164;2023-04-03T09:07:12;8.95;;;5.57;;
151;SDS011;68;48.792;9.164;2023-04-03T09:09:45;6.68;;;6.10;;
151;SDS011;68;48.792;9.164;2023-04-03T09:12:17;10.00;;;6.18;;
151;SDS011;68;48.792;9.164;2023-04-03T09:14:51;9.20;;;6.00;;
151;SDS011;68;48.792;9.164;2023-04-03T09:17:31;6.63;;;5.53;;
151;SDS011;68;48.792;9.164;2023-04-03T09:20:11;7.30;;;5.97;;
151;SDS011;68;48.792;9.164;2023-04-03T09:22:46;7.68;;;5.53;;
151;SDS011;68;48.792;9.164;2023-04-03T09:25:14;6.32;;;5.55;;
151;SDS011;68;48.792;9.164;2023-04-03T09:27:44;8.85;;;5.95;;
151;SDS011;68;48.792;9.164;2023-04-03T09:30:13;12.10;;;6.53;;
151;SDS011;68;48.792;9.164;2023-04-03T09:32:41;9.70;;;5.47;;
151;SDS011;68;48.792;9.164;2023-04-03T09:35:15;6.55;;;5.53;;
151;SDS011;68;48.792;9.164;2023-04-03T09:37:47;6.93;;;5.25;;
151;SDS011;68;48.792;9.164;2023-04-03T09:45:48;10.68;;;5.15;;
151;SDS011;68;48.792;9.164;2023-04-03T09:48:17;7.47;;;5.30;;
151;SDS011;68;48.792;9.164;2023-04-03T09:50:53;8.00;;;5.50;;
151;SDS011;68;48.792;9.164;2023-04-03T09:53:28;7.70;;;5.10;;
151;SDS011;68;48.792;9.164;2023-04-03T09:56:00;6.10;;;4.68;;
151;SDS011;68;48.792;9.164;2023-04-03T09:58:31;8.98;;;5.22;;
151;SDS011;68;48.792;9.164;2023-04-03T10:01:00;5.90;;;4.95;;
151;SDS011;68;48.792;9.164;2023-04-03T10:03:28;8.55;;;5.40;;
151;SDS011;68;48.792;9.164;2023-04-03T10:05:57;6.65;;;4.72;;
151;SDS011;68;48.792;9.164;2023-04-03T10:08:26;7.53;;;5.00;;
151;SDS011;68;48.792;9.164;2023-04-03T10:13:52;6.47;;;4.85;;
151;SDS011;68;48.792;9.164;2023-04-03T10:16:21;6.72;;;4.90;;
151;SDS011;68;48.792;9.164;2023-04-03T10:18:55;6.10;;;4.68;;
151;SDS011;68;48.792;9.164;2023-04-03T10:21:32;9.00;;;4.35;;
151;SDS011;68;48.792;9.164;2023-04-03T10:24:08;7.68;;;4.85;;
151;SDS011;68;48.792;9.164;2023-04-03T10:26:39;5.45;;;4.60;;
151;SDS011;68;48.792;9.164;2023-04-03T10:29:15;6.03;;;4.28;;
151;SDS011;68;48.792;9.164;2023-04-03T10:31:52;4.55;;;4.30;;
151;SDS011;68;48.792;9.164;2023-04-03T10:34:27;5.78;;;4.55;;
151;SDS011;68;48.792;9.164;2023-04-03T10:36:59;5.85;;;4.65;;
151;SDS011;68;48.792;9.164;2023-04-03T10:39:33;5.80;;;4.47;;
151;SDS011;68;48.792;9.164;2023-04-03T10:42:08;7.68;;;4.93;;
151;SDS011;68;48.792;9.164;2023-04-03T10:44:45;10.32;;;5.10;;
151;SDS011;68;48.792;9.164;2023-04-03T10:47:21;5.25;;;4.30;;
151;SDS011;68;48.792;9.164;2023-04-03T10:49:53;8.40;;;5.10;;
151;SDS011;68;48.792;9.164;2023-04-03T10:52:26;5.50;;;4.70;;
151;SDS011;68;48.792;9.164;2023-04-03T10:55:02;6.15;;;3.90;;
151;SDS011;68;48.792;9.164;2023-04-03T10:57:40;8.15;;;5.13;;
151;SDS011;68;48.792;9.164;2023-04-03T11:00:14;6.60;;;4.18;;
151;SDS011;68;48.792;9.164;2023-04-03T11:02:45;6.00;;;4.40;;
151;SDS011;68;48.792;9.164;2023-04-03T11:05:18;8.10;;;4.68;;
151;SDS011;68;48.792;9.164;2023-04-03T11:07:52;5.57;;;4.30;;
151;SDS011;68;48.792;9.164;2023-04-03T11:10:22;8.93;;;4.30;;
151;SDS011;68;48.792;9.164;2023-04-03T11:12:56;5.68;;;4.03;;
151;SDS011;68;48.792;9.164;2023-04-03T11:15:29;5.22;;;4.00;;
151;SDS011;68;48.792;9.164;2023-04-03T11:17:59;4.50;;;3.70;;
151;SDS011;68;48.792;9.164;2023-04-03T11:20:29;6.63;;;3.60;;
151;SDS011;68;48.792;9.164;2023-04-03T11:22:58;7.82;;;3.70;;
151;SDS011;68;48.792;9.164;2023-04-03T11:25:29;5.13;;;4.05;;
151;SDS011;68;48.792;9.164;2023-04-03T11:27:59;6.30;;;4.32;;
151;SDS011;68;48.792;9.164;2023-04-03T11:30:32;5.82;;;3.58;;
151;SDS011;68;48.792;9.164;2023-04-03T11:36:07;6.32;;;3.65;;
151;SDS011;68;48.792;9.164;2023-04-03T11:38:36;9.93;;;4.38;;
151;SDS011;68;48.792;9.164;2023-04-03T11:41:08;6.47;;;3.97;;
151;SDS011;68;48.792;9.164;2023-04-03T11:43:39;6.90;;;4.00;;
151;SDS011;68;48.792;9.164;2023-04-03T11:46:09;5.20;;;3.92;;
151;SDS011;68;48.792;9.164;2023-04-03T11:48:44;5.97;;;4.30;;
151;SDS011;68;48.792;9.164;2023-04-03T11:54:36;9.63;;;4.25;;
151;SDS011;68;48.792;9.164;2023-04-03T12:03:31;4.32;;;3.45;;
151;SDS011;68;48.792;9.164;2023-04-03T12:09:22;5.50;;;4.05;;
151;SDS011;68;48.792;9.164;2023-04-03T12:14:53;5.35;;;3.78;;
151;SDS011;68;48.792;9.164;2023-04-03T12:17:21;8.57;;;4.32;;
151;SDS011;68;48.792;9.164;2023-04-03T12:19:51;6.35;;;3.85;;
151;SDS011;68;48.792;9.164;2023-04-03T12:22:19;7.18;;;4.03;;
151;SDS011;68;48.792;9.164;2023-04-03T12:24:47;5.88;;;3.72;;
151;SDS011;68;48.792;9.164;2023-04-03T12:27:30;7.07;;;3.65;;
151;SDS011;68;48.792;9.164;2023-04-03T12:30:05;6.00;;;4.05;;
151;SDS011;68;48.792;9.164;2023-04-03T12:32:43;4.53;;;3.92;;
151;SDS011;68;48.792;9.164;2023-04-03T12:35:34;7.95;;;4.40;;
151;SDS011;68;48.792;9.164;2023-04-03T12:38:17;6.57;;;4.70;;
151;SDS011;68;48.792;9.164;2023-04-03T12:41:16;6.45;;;4.20;;
151;SDS011;68;48.792;9.164;2023-04-03T12:43:50;4.80;;;4.00;;
151;SDS011;68;48.792;9.164;2023-04-03T12:46:28;5.28;;;4.10;;
151;SDS011;68;48.792;9.164;2023-04-03T12:49:10;5.85;;;4.13;;
151;SDS011;68;48.792;9.164;2023-04-03T12:51:49;5.80;;;3.75;;
151;SDS011;68;48.792;9.164;2023-04-03T12:54:18;6.13;;;3.70;;
151;SDS011;68;48.792;9.164;2023-04-03T12:56:49;4.30;;;3.78;;
151;SDS011;68;48.792;9.164;2023-04-03T12:59:16;6.88;;;4.28;;
151;SDS011;68;48.792;9.164;2023-04-03T13:01:52;4.43;;;3.63;;
151;SDS011;68;48.792;9.164;2023-04-03T13:04:20;5.90;;;4.00;;
151;SDS011;68;48.792;9.164;2023-04-03T13:06:47;7.75;;;4.45;;
151;SDS011;68;48.792;9.164;2023-04-03T13:09:19;7.43;;;4.15;;
151;SDS011;68;48.792;9.164;2023-04-03T13:11:48;6.25;;;4.40;;
151;SDS011;68;48.792;9.164;2023-04-03T13:14:18;5.07;;;4.03;;
151;SDS011;68;48.792;9.164;2023-04-03T13:16:52;5.00;;;3.97;;
151;SDS011;68;48.792;9.164;2023-04-03T13:19:22;6.40;;;3.75;;
151;SDS011;68;48.792;9.164;2023-04-03T13:21:50;5.28;;;4.05;;
151;SDS011;68;48.792;9.164;2023-04-03T13:24:24;8.50;;;4.45;;
151;SDS011;68;48.792;9.164;2023-04-03T13:26:51;7.35;;;3.95;;
151;SDS011;68;48.792;9.164;2023-04-03T13:29:21;5.43;;;3.90;;
151;SDS011;68;48.792;9.164;2023-04-03T13:31:52;7.07;;;4.20;;
151;SDS011;68;48.792;9.164;2023-04-03T13:34:21;6.35;;;4.10;;
151;SDS011;68;48.792;9.164;2023-04-03T13:36:55;5.57;;;4.40;;
151;SDS011;68;48.792;9.164;2023-04-03T13:39:25;6.13;;;4.20;;
151;SDS011;68;48.792;9.164;2023-04-03T13:41:54;4.63;;;3.95;;
151;SDS011;68;48.792;9.164;2023-04-03T13:44:27;6.22;;;4.35;;
151;SDS011;68;48.792;9.164;2023-04-03T13:46:59;8.32;;;3.78;;
151;SDS011;68;48.792;9.164;2023-04-03T13:49:40;9.35;;;4.10;;
151;SDS011;68;48.792;9.164;2023-04-03T13:52:20;7.78;;;4.13;;
151;SDS011;68;48.792;9.164;2023-04-03T13:54:53;6.88;;;4.13;;
151;SDS011;68;48.792;9.164;2023-04-03T13:57:21;5.25;;;4.10;;
151;SDS011;68;48.792;9.164;2023-04-03T13:59:49;6.18;;;4.07;;
151;SDS011;68;48.792;9.164;2023-04-03T14:02:17;4.68;;;3.55;;
151;SDS011;68;48.792;9.164;2023-04-03T14:04:48;5.13;;;4.18;;
151;SDS011;68;48.792;9.164;2023-04-03T14:07:21;5.78;;;4.10;;
151;SDS011;68;48.792;9.164;2023-04-03T14:09:48;6.05;;;4.18;;
151;SDS011;68;48.792;9.164;2023-04-03T14:12:17;7.25;;;4.82;;
151;SDS011;68;48.792;9.164;2023-04-03T14:14:47;6.47;;;4.10;;
151;SDS011;68;48.792;9.164;2023-04-03T14:17:15;6.00;;;4.15;;
151;SDS011;68;48.792;9.164;2023-04-03T14:19:44;5.85;;;4.28;;
151;SDS011;68;48.792;9.164;2023-04-03T14:22:15;6.50;;;4.30;;
151;SDS011;68;48.792;9.164;2023-04-03T14:24:43;5.13;;;4.00;;
151;SDS011;68;48.792;9.164;2023-04-03T14:27:14;4.88;;;4.03;;
151;SDS011;68;48.792;9.164;2023-04-03T14:29:45;7.85;;;4.60;;
151;SDS011;68;48.792;9.164;2023-04-03T14:32:13;5.60;;;4.40;;
151;SDS011;68;48.792;9.164;2023-04-03T14:34:41;5.43;;;4.28;;
151;SDS011;68;48.792;9.164;2023-04-03T14:37:09;5.22;;;4.05;;
151;SDS011;68;48.792;9.164;2023-04-03T14:39:38;5.10;;;3.90;;
151;SDS011;68;48.792;9.164;2023-04-03T14:42:05;5.97;;;4.00;;
151;SDS011;68;48.792;9.164;2023-04-03T14:44:37;4.47;;;3.90;;
151;SDS011;68;48.792;9.164;2023-04-03T14:47:04;7.55;;;4.35;;
151;SDS011;68;48.792;9.164;2023-04-03T14:49:31;4.88;;;4.18;;
151;SDS011;68;48.792;9.164;2023-04-03T14:51:58;6.43;;;4.25;;
151;SDS011;68;48.792;9.164;2023-04-03T14:54:25;4.85;;;4.00;;
151;SDS011;68;48.792;9.164;2023-04-03T14:56:53;4.72;;;3.75;;
151;SDS011;68;48.792;9.164;2023-04-03T14:59:21;5.32;;;3.90;;
151;SDS011;68;48.792;9.164;2023-04-03T15:01:49;5.13;;;3.97;;
151;SDS011;68;48.792;9.164;2023-04-03T15:04:18;6.65;;;4.40;;
151;SDS011;68;48.792;9.164;2023-04-03T15:06:46;9.98;;;4.18;;
151;SDS011;68;48.792;9.164;2023-04-03T15:09:19;4.93;;;4.10;;
151;SDS011;68;48.792;9.164;2023-04-03T15:11:48;4.82;;;3.90;;
151;SDS011;68;48.792;9.164;2023-04-03T15:14:15;9.15;;;4.07;;
151;SDS011;68;48.792;9.164;2023-04-03T15:16:42;6.55;;;3.38;;
151;SDS011;68;48.792;9.164;2023-04-03T15:19:11;4.32;;;3.50;;
151;SDS011;68;48.792;9.164;2023-04-03T15:21:38;5.45;;;3.75;;
151;SDS011;68;48.792;9.164;2023-04-03T15:24:05;5.70;;;4.00;;
151;SDS011;68;48.792;9.164;2023-04-03T15:26:32;7.28;;;4.28;;
151;SDS011;68;48.792;9.164;2023-04-03T15:28:59;6.53;;;4.40;;
151;SDS011;68;48.792;9.164;2023-04-03T15:31:26;4.97;;;4.10;;
151;SDS011;68;48.792;9.164;2023-04-03T15:33:53;5.75;;;4.10;;
151;SDS011;68;48.792;9.164;2023-04-03T15:36:21;4.18;;;3.85;;
151;SDS011;68;48.792;9.164;2023-04-03T15:38:48;6.70;;;3.90;;
151;SDS011;68;48.792;9.164;2023-04-03T15:41:15;5.57;;;3.92;;
151;SDS011;68;48.792;9.164;2023-04-03T15:43:42;5.90;;;3.55;;
151;SDS011;68;48.792;9.164;2023-04-03T15:46:09;5.32;;;4.20;;
151;SDS011;68;48.792;9.164;2023-04-03T15:48:36;6.45;;;3.92;;
151;SDS011;68;48.792;9.164;2023-04-03T15:51:03;7.85;;;3.90;;
151;SDS011;68;48.792;9.164;2023-04-03T15:53:32;4.13;;;3.67;;
151;SDS011;68;48.792;9.164;2023-04-03T15:55:59;4.85;;;3.88;;
151;SDS011;68;48.792;9.164;2023-04-03T15:58:26;4.45;;;3.60;;
151;SDS011;68;48.792;9.164;2023-04-03T16:00:52;4.45;;;4.00;;
151;SDS011;68;48.792;9.164;2023-04-03T16:03:19;7.50;;;4.03;;
151;SDS011;68;48.792;9.164;2023-04-03T16:05:49;4.40;;;3.75;;
151;SDS011;68;48.792;9.164;2023-04-03T16:08:16;7.25;;;4.10;;
151;SDS011;68;48.792;9.164;2023-04-03T16:10:44;5.50;;;3.78;;
151;SDS011;68;48.792;9.164;2023-04-03T16:13:12;5.22;;;4.00;;
151;SDS011;68;48.792;9.164;2023-04-03T16:15:39;5.78;;;4.40;;
151;SDS011;68;48.792;9.164;2023-04-03T16:18:07;5.70;;;3.80;;
151;SDS011;68;48.792;9.164;2023-04-03T16:20:34;5.38;;;4.07;;
151;SDS011;68;48.792;9.164;2023-04-03T16:23:01;6.78;;;4.20;;
151;SDS011;68;48.792;9.164;2023-04-03T16:25:28;5.53;;;4.10;;
151;SDS011;68;48.792;9.164;2023-04-03T16:27:57;5.55;;;4.30;;
151;SDS011;68;48.792;9.164;2023-04-03T16:30:24;5.25;;;4.20;;
151;SDS011;68;48.792;9.164;2023-04-03T16:32:52;10.95;;;4.00;;
151;SDS011;68;48.792;9.164;2023-04-03T16:35:20;7.97;;;4.65;;
151;SDS011;68;48.792;9.164;2023-04-03T16:37:47;5.35;;;3.85;;
151;SDS011;68;48.792;9.164;2023-04-03T16:40:14;5.95;;;4.10;;
151;SDS011;68;48.792;9.164;2023-04-03T16:42:41;4.70;;;3.85;;